Wetterdaten: Woche 31.05.10 - 06.06.10 (KW22)
Datum Zeit Temperatur Luftfeuchte Luftdruck Niederschlag Windrichtung Sonnenschein Solar Wind
31.05.2010 00:00 11,8 C 86 % 1007,2 hPa 0,2 l/m W-SW 0,00 h 0 W/m 19,2 km/h (3 Bft)
31.05.2010 01:00 10,5 C 90 % 1007,6 hPa 5,0 l/m NW 0,00 h 0 W/m 22,2 km/h (4 Bft)
31.05.2010 02:00 9,0 C 91 % 1007,6 hPa 0,4 l/m W-NW 0,00 h 0 W/m 20,9 km/h (4 Bft)
31.05.2010 03:00 7,4 C 88 % 1009,3 hPa 0,0 l/m N-NW 0,00 h 0 W/m 26,9 km/h (4 Bft)
31.05.2010 04:00 5,6 C 92 % 1009,6 hPa 0,0 l/m NW 0,00 h 0 W/m 4,4 km/h (1 Bft)
31.05.2010 05:00 5,0 C 93 % 1010,3 hPa 0,0 l/m SW 0,00 h 8 W/m 6,7 km/h (2 Bft)
31.05.2010 06:00 5,9 C 91 % 1010,7 hPa 0,0 l/m SW 0,00 h 48 W/m 13,6 km/h (3 Bft)
31.05.2010 07:00 6,8 C 90 % 1011,2 hPa 0,0 l/m W-SW 0,00 h 87 W/m 13,6 km/h (3 Bft)
31.05.2010 08:00 7,7 C 89 % 1011,5 hPa 0,0 l/m SW 0,00 h 103 W/m 12,6 km/h (3 Bft)
31.05.2010 09:00 8,9 C 82 % 1011,9 hPa 0,0 l/m W 0,17 h 291 W/m 17,0 km/h (3 Bft)
31.05.2010 10:00 10,5 C 74 % 1011,8 hPa 0,0 l/m W 0,25 h 301 W/m 18,1 km/h (3 Bft)
31.05.2010 11:00 11,0 C 66 % 1011,9 hPa 0,0 l/m W 0,00 h 214 W/m 18,5 km/h (3 Bft)
31.05.2010 12:00 11,0 C 66 % 1012,6 hPa 0,0 l/m W 0,00 h 276 W/m 20,1 km/h (4 Bft)
31.05.2010 13:00 11,3 C 65 % 1012,9 hPa 0,0 l/m W-NW 0,08 h 398 W/m 26,8 km/h (4 Bft)
31.05.2010 14:00 11,8 C 65 % 1013,1 hPa 0,0 l/m W 0,08 h 281 W/m 20,9 km/h (4 Bft)
31.05.2010 15:00 11,3 C 67 % 1013,7 hPa 0,0 l/m W-NW 0,00 h 108 W/m 16,8 km/h (3 Bft)
31.05.2010 16:00 11,3 C 68 % 1014,0 hPa 0,0 l/m W-NW 0,00 h 133 W/m 16,5 km/h (3 Bft)
31.05.2010 17:00 11,3 C 70 % 1014,4 hPa 0,0 l/m W-NW 0,00 h 119 W/m 13,4 km/h (3 Bft)
31.05.2010 18:00 11,1 C 72 % 1014,6 hPa 0,0 l/m W-NW 0,00 h 56 W/m 12,0 km/h (2 Bft)
31.05.2010 19:00 10,7 C 73 % 1014,9 hPa 0,0 l/m W-NW 0,00 h 21 W/m 13,4 km/h (3 Bft)
31.05.2010 20:00 10,4 C 77 % 1015,0 hPa 0,0 l/m W 0,00 h 24 W/m 11,2 km/h (2 Bft)
31.05.2010 21:00 10,2 C 78 % 1015,6 hPa 0,0 l/m W-NW 0,00 h 0 W/m 14,1 km/h (3 Bft)
31.05.2010 22:00 10,2 C 79 % 1015,9 hPa 0,0 l/m W-NW 0,00 h 0 W/m 13,8 km/h (3 Bft)
31.05.2010 23:00 10,1 C 80 % 1016,1 hPa 0,0 l/m W 0,00 h 0 W/m 10,6 km/h (2 Bft)
01.06.2010 00:00 9,9 C 84 % 1016,1 hPa 0,0 l/m SW 0,00 h 0 W/m 6,5 km/h (2 Bft)
01.06.2010 01:00 9,4 C 87 % 1015,7 hPa 0,2 l/m W-SW 0,00 h 0 W/m 9,3 km/h (2 Bft)
01.06.2010 02:00 9,1 C 89 % 1015,5 hPa 0,2 l/m W-SW 0,00 h 0 W/m 9,7 km/h (2 Bft)
01.06.2010 03:00 8,8 C 91 % 1015,1 hPa 0,6 l/m W-SW 0,00 h 0 W/m 12,0 km/h (2 Bft)
01.06.2010 04:00 8,7 C 92 % 1014,7 hPa 0,6 l/m W-SW 0,00 h 0 W/m 10,2 km/h (2 Bft)
01.06.2010 05:00 8,7 C 93 % 1014,3 hPa 0,0 l/m W 0,00 h 8 W/m 8,3 km/h (2 Bft)
01.06.2010 06:00 8,9 C 93 % 1014,7 hPa 0,0 l/m W-SW 0,00 h 37 W/m 7,1 km/h (2 Bft)
01.06.2010 07:00 9,3 C 93 % 1014,9 hPa 0,0 l/m W 0,00 h 37 W/m 9,4 km/h (2 Bft)
01.06.2010 08:00 9,8 C 94 % 1015,2 hPa 0,0 l/m W-SW 0,00 h 80 W/m 8,0 km/h (2 Bft)
01.06.2010 09:00 10,2 C 93 % 1015,7 hPa 0,0 l/m W 0,00 h 107 W/m 12,8 km/h (3 Bft)
01.06.2010 10:00 10,4 C 95 % 1015,5 hPa 0,2 l/m W-NW 0,08 h 194 W/m 9,7 km/h (2 Bft)
01.06.2010 11:00 10,6 C 93 % 1014,9 hPa 0,4 l/m N-NO 0,00 h 81 W/m 7,9 km/h (2 Bft)
01.06.2010 12:00 11,4 C 92 % 1014,5 hPa 0,2 l/m W-NW 0,17 h 424 W/m 7,5 km/h (2 Bft)
01.06.2010 13:00 13,2 C 83 % 1014,0 hPa 0,0 l/m W-SW 0,17 h 434 W/m 8,9 km/h (2 Bft)
01.06.2010 14:00 13,5 C 81 % 1013,4 hPa 0,0 l/m W-SW 0,08 h 188 W/m 13,0 km/h (3 Bft)
01.06.2010 15:00 13,8 C 80 % 1013,3 hPa 0,0 l/m W-SW 0,17 h 335 W/m 10,1 km/h (2 Bft)
01.06.2010 16:00 13,0 C 88 % 1013,3 hPa 0,0 l/m S-SW 0,00 h 112 W/m 13,2 km/h (3 Bft)
01.06.2010 17:00 12,5 C 88 % 1013,5 hPa 0,0 l/m SW 0,00 h 92 W/m 12,5 km/h (3 Bft)
01.06.2010 18:00 12,2 C 88 % 1013,1 hPa 0,0 l/m SW 0,00 h 74 W/m 9,5 km/h (2 Bft)
01.06.2010 19:00 12,2 C 88 % 1013,3 hPa 0,0 l/m SW 0,00 h 51 W/m 9,4 km/h (2 Bft)
01.06.2010 20:00 11,6 C 90 % 1013,1 hPa 0,0 l/m S-SW 0,00 h 15 W/m 7,1 km/h (2 Bft)
01.06.2010 21:00 11,0 C 92 % 1013,0 hPa 0,0 l/m SW 0,00 h 0 W/m 4,0 km/h (1 Bft)
01.06.2010 22:00 10,8 C 93 % 1012,8 hPa 0,0 l/m N 0,00 h 0 W/m 1,3 km/h (1 Bft)
01.06.2010 23:00 10,6 C 94 % 1012,8 hPa 0,0 l/m N 0,00 h 0 W/m 0,1 km/h (0 Bft)
02.06.2010 00:00 10,5 C 95 % 1012,6 hPa 0,2 l/m O-NO 0,00 h 0 W/m 1,3 km/h (1 Bft)
02.06.2010 01:00 10,3 C 96 % 1012,6 hPa 1,0 l/m N 0,00 h 0 W/m 2,3 km/h (1 Bft)
02.06.2010 02:00 10,0 C 97 % 1012,6 hPa 0,6 l/m N 0,00 h 0 W/m 1,1 km/h (0 Bft)
02.06.2010 03:00 9,8 C 97 % 1012,3 hPa 0,2 l/m N 0,00 h 0 W/m 0,1 km/h (0 Bft)
02.06.2010 04:00 9,7 C 98 % 1011,9 hPa 0,0 l/m N 0,00 h 0 W/m 0,5 km/h (0 Bft)
02.06.2010 05:00 9,4 C 97 % 1012,1 hPa 0,0 l/m N 0,00 h 5 W/m 1,3 km/h (1 Bft)
02.06.2010 06:00 9,4 C 98 % 1012,5 hPa 0,0 l/m N 0,00 h 15 W/m 0,7 km/h (0 Bft)
02.06.2010 07:00 9,6 C 98 % 1012,6 hPa 0,0 l/m N 0,00 h 35 W/m 1,3 km/h (1 Bft)
02.06.2010 08:00 10,1 C 97 % 1012,8 hPa 0,0 l/m W 0,00 h 81 W/m 4,4 km/h (1 Bft)
02.06.2010 09:00 10,5 C 95 % 1013,1 hPa 0,0 l/m W 0,00 h 99 W/m 6,4 km/h (2 Bft)
02.06.2010 10:00 11,2 C 93 % 1013,1 hPa 0,0 l/m W-NW 0,00 h 119 W/m 8,6 km/h (2 Bft)
02.06.2010 11:00 11,0 C 92 % 1013,3 hPa 0,4 l/m N-NW 0,00 h 82 W/m 7,6 km/h (2 Bft)
02.06.2010 12:00 11,3 C 90 % 1013,6 hPa 0,0 l/m N-NW 0,00 h 94 W/m 6,8 km/h (2 Bft)
02.06.2010 13:00 11,5 C 91 % 1013,7 hPa 0,0 l/m NW 0,00 h 112 W/m 7,6 km/h (2 Bft)
02.06.2010 14:00 11,8 C 85 % 1014,0 hPa 0,2 l/m N-NW 0,00 h 154 W/m 11,3 km/h (2 Bft)
02.06.2010 15:00 12,0 C 85 % 1014,1 hPa 0,2 l/m NW 0,00 h 110 W/m 9,7 km/h (2 Bft)
02.06.2010 16:00 11,6 C 92 % 1014,3 hPa 0,2 l/m NW 0,00 h 59 W/m 5,5 km/h (1 Bft)
02.06.2010 17:00 11,4 C 94 % 1014,2 hPa 0,0 l/m SW 0,00 h 29 W/m 4,1 km/h (1 Bft)
02.06.2010 18:00 11,4 C 95 % 1014,1 hPa 1,0 l/m SW 0,00 h 30 W/m 5,2 km/h (1 Bft)
02.06.2010 19:00 11,3 C 96 % 1014,5 hPa 0,0 l/m W-SW 0,00 h 15 W/m 6,4 km/h (2 Bft)
02.06.2010 20:00 11,4 C 96 % 1014,8 hPa 0,2 l/m W 0,00 h 7 W/m 3,3 km/h (1 Bft)
02.06.2010 21:00 11,4 C 97 % 1014,9 hPa 0,2 l/m N 0,00 h 0 W/m 0,8 km/h (0 Bft)
02.06.2010 22:00 11,4 C 97 % 1015,1 hPa 0,0 l/m W 0,00 h 0 W/m 1,9 km/h (1 Bft)
02.06.2010 23:00 11,4 C 97 % 1014,9 hPa 0,4 l/m NW 0,00 h 0 W/m 5,6 km/h (1 Bft)
03.06.2010 00:00 11,3 C 97 % 1014,5 hPa 0,2 l/m NW 0,00 h 0 W/m 7,4 km/h (2 Bft)
03.06.2010 01:00 11,3 C 96 % 1014,1 hPa 0,2 l/m N-NW 0,00 h 0 W/m 11,3 km/h (2 Bft)
03.06.2010 02:00 11,2 C 96 % 1013,8 hPa 0,0 l/m N-NW 0,00 h 0 W/m 13,6 km/h (3 Bft)
03.06.2010 03:00 11,2 C 95 % 1013,3 hPa 0,2 l/m N-NW 0,00 h 0 W/m 12,9 km/h (3 Bft)
03.06.2010 04:00 11,0 C 95 % 1013,1 hPa 1,0 l/m N 0,00 h 0 W/m 17,0 km/h (3 Bft)
03.06.2010 05:00 10,8 C 95 % 1013,6 hPa 2,0 l/m N 0,00 h 0 W/m 9,8 km/h (2 Bft)
03.06.2010 06:00 10,6 C 96 % 1014,2 hPa 1,0 l/m N-NO 0,00 h 8 W/m 6,7 km/h (2 Bft)
03.06.2010 07:00 10,6 C 97 % 1014,3 hPa 0,0 l/m N-NO 0,00 h 30 W/m 6,8 km/h (2 Bft)
03.06.2010 08:00 10,7 C 97 % 1014,7 hPa 0,4 l/m N-NW 0,00 h 25 W/m 6,5 km/h (2 Bft)
03.06.2010 09:00 10,7 C 96 % 1015,4 hPa 3,4 l/m N-NO 0,00 h 35 W/m 5,5 km/h (1 Bft)
03.06.2010 10:00 10,8 C 97 % 1015,9 hPa 3,2 l/m N-NO 0,00 h 79 W/m 4,9 km/h (1 Bft)
03.06.2010 11:00 10,9 C 96 % 1016,2 hPa 0,8 l/m N 0,00 h 142 W/m 9,7 km/h (2 Bft)
03.06.2010 12:00 11,2 C 96 % 1016,0 hPa 0,2 l/m N-NO 0,00 h 176 W/m 12,9 km/h (3 Bft)
03.06.2010 13:00 11,7 C 95 % 1016,2 hPa 0,0 l/m N 0,00 h 207 W/m 11,0 km/h (2 Bft)
03.06.2010 14:00 11,8 C 94 % 1016,4 hPa 0,2 l/m N-NO 0,00 h 121 W/m 8,4 km/h (2 Bft)
03.06.2010 15:00 11,6 C 94 % 1016,7 hPa 0,2 l/m NO 0,00 h 86 W/m 7,6 km/h (2 Bft)
03.06.2010 16:00 11,1 C 96 % 1017,0 hPa 0,8 l/m N 0,00 h 114 W/m 8,0 km/h (2 Bft)
03.06.2010 17:00 11,3 C 97 % 1016,9 hPa 0,6 l/m NW 0,00 h 77 W/m 5,6 km/h (1 Bft)
03.06.2010 18:00 11,3 C 97 % 1016,9 hPa 0,4 l/m NW 0,00 h 38 W/m 3,6 km/h (1 Bft)
03.06.2010 19:00 11,5 C 97 % 1017,0 hPa 0,2 l/m NW 0,00 h 25 W/m 3,6 km/h (1 Bft)
03.06.2010 20:00 11,6 C 97 % 1016,9 hPa 0,2 l/m NW 0,00 h 9 W/m 3,3 km/h (1 Bft)
03.06.2010 21:00 11,6 C 97 % 1017,1 hPa 0,0 l/m N 0,00 h 0 W/m 1,9 km/h (1 Bft)
03.06.2010 22:00 11,5 C 98 % 1017,4 hPa 0,4 l/m N 0,00 h 0 W/m 1,3 km/h (1 Bft)
03.06.2010 23:00 11,5 C 98 % 1017,5 hPa 0,2 l/m N 0,00 h 0 W/m 1,1 km/h (0 Bft)
04.06.2010 00:00 11,6 C 98 % 1017,5 hPa 0,0 l/m N 0,00 h 0 W/m 1,1 km/h (0 Bft)
04.06.2010 01:00 11,6 C 98 % 1017,3 hPa 0,0 l/m N 0,00 h 0 W/m 0,3 km/h (0 Bft)
04.06.2010 02:00 11,5 C 98 % 1017,3 hPa 0,2 l/m N 0,00 h 0 W/m 0,4 km/h (0 Bft)
04.06.2010 03:00 11,4 C 98 % 1017,1 hPa 0,0 l/m N 0,00 h 0 W/m 1,3 km/h (1 Bft)
04.06.2010 04:00 11,3 C 98 % 1017,2 hPa 0,0 l/m NW 0,00 h 0 W/m 1,6 km/h (1 Bft)
04.06.2010 05:00 11,2 C 98 % 1017,4 hPa 0,0 l/m NW 0,00 h 9 W/m 3,7 km/h (1 Bft)
04.06.2010 06:00 11,3 C 98 % 1017,6 hPa 0,0 l/m NW 0,00 h 31 W/m 3,5 km/h (1 Bft)
04.06.2010 07:00 11,6 C 99 % 1018,0 hPa 0,0 l/m NW 0,00 h 98 W/m 2,8 km/h (1 Bft)
04.06.2010 08:00 12,8 C 99 % 1018,2 hPa 0,0 l/m NW 0,58 h 346 W/m 4,7 km/h (1 Bft)
04.06.2010 09:00 15,8 C 87 % 1018,3 hPa 0,0 l/m NO 0,83 h 594 W/m 10,5 km/h (2 Bft)
04.06.2010 10:00 16,8 C 79 % 1018,4 hPa 0,0 l/m O-NO 0,83 h 761 W/m 13,0 km/h (3 Bft)
04.06.2010 11:00 18,2 C 75 % 1018,4 hPa 0,0 l/m N-NO 0,67 h 714 W/m 12,1 km/h (2 Bft)
04.06.2010 12:00 19,5 C 65 % 1018,5 hPa 0,0 l/m O-NO 0,75 h 732 W/m 12,6 km/h (3 Bft)
04.06.2010 13:00 20,2 C 57 % 1018,2 hPa 0,0 l/m NO 0,92 h 896 W/m 15,0 km/h (3 Bft)
04.06.2010 14:00 20,9 C 55 % 1017,9 hPa 0,0 l/m NO 1,00 h 875 W/m 14,2 km/h (3 Bft)
04.06.2010 15:00 21,5 C 51 % 1017,7 hPa 0,0 l/m NO 1,00 h 794 W/m 15,6 km/h (3 Bft)
04.06.2010 16:00 22,1 C 48 % 1017,6 hPa 0,0 l/m O-NO 1,00 h 678 W/m 14,8 km/h (3 Bft)
04.06.2010 17:00 22,4 C 46 % 1017,4 hPa 0,0 l/m O-NO 1,00 h 530 W/m 14,4 km/h (3 Bft)
04.06.2010 18:00 22,3 C 44 % 1017,5 hPa 0,0 l/m N-NO 1,00 h 367 W/m 13,8 km/h (3 Bft)
04.06.2010 19:00 21,6 C 42 % 1017,5 hPa 0,0 l/m O-NO 0,17 h 60 W/m 11,8 km/h (2 Bft)
04.06.2010 20:00 19,5 C 54 % 1017,7 hPa 0,0 l/m O 0,00 h 18 W/m 5,3 km/h (1 Bft)
04.06.2010 21:00 15,4 C 73 % 1017,9 hPa 0,0 l/m N 0,00 h 6 W/m 0,7 km/h (0 Bft)
04.06.2010 22:00 13,6 C 79 % 1018,4 hPa 0,0 l/m N 0,00 h 0 W/m 1,6 km/h (1 Bft)
04.06.2010 23:00 12,5 C 84 % 1018,7 hPa 0,0 l/m N 0,00 h 0 W/m 1,9 km/h (1 Bft)
05.06.2010 00:00 11,9 C 86 % 1019,0 hPa 0,0 l/m N-NW 0,00 h 0 W/m 3,7 km/h (1 Bft)
05.06.2010 01:00 11,7 C 86 % 1019,0 hPa 0,0 l/m N-NW 0,00 h 0 W/m 3,3 km/h (1 Bft)
05.06.2010 02:00 11,2 C 87 % 1018,8 hPa 0,0 l/m N-NW 0,00 h 0 W/m 5,6 km/h (1 Bft)
05.06.2010 03:00 11,1 C 89 % 1018,8 hPa 0,0 l/m N-NW 0,00 h 0 W/m 6,1 km/h (2 Bft)
05.06.2010 04:00 10,5 C 89 % 1018,7 hPa 0,0 l/m N 0,00 h 0 W/m 0,7 km/h (0 Bft)
05.06.2010 05:00 9,7 C 91 % 1018,9 hPa 0,0 l/m N-NW 0,00 h 10 W/m 4,8 km/h (1 Bft)
05.06.2010 06:00 9,9 C 93 % 1019,0 hPa 0,0 l/m N 0,50 h 89 W/m 1,2 km/h (1 Bft)
05.06.2010 07:00 12,7 C 86 % 1018,9 hPa 0,0 l/m N-NW 1,00 h 283 W/m 4,0 km/h (1 Bft)
05.06.2010 08:00 15,4 C 78 % 1018,9 hPa 0,0 l/m O 1,00 h 458 W/m 3,9 km/h (1 Bft)
05.06.2010 09:00 18,1 C 71 % 1018,6 hPa 0,0 l/m O 1,00 h 612 W/m 4,9 km/h (1 Bft)
05.06.2010 10:00 20,4 C 65 % 1018,5 hPa 0,0 l/m S 1,00 h 751 W/m 6,4 km/h (2 Bft)
05.06.2010 11:00 21,9 C 59 % 1018,1 hPa 0,0 l/m NO 1,00 h 846 W/m 8,8 km/h (2 Bft)
05.06.2010 12:00 23,1 C 53 % 1017,7 hPa 0,0 l/m O-NO 1,00 h 904 W/m 9,3 km/h (2 Bft)
05.06.2010 13:00 24,0 C 44 % 1017,2 hPa 0,0 l/m O-NO 1,00 h 921 W/m 9,7 km/h (2 Bft)
05.06.2010 14:00 24,9 C 40 % 1016,7 hPa 0,0 l/m O-SO 1,00 h 882 W/m 9,8 km/h (2 Bft)
05.06.2010 15:00 25,6 C 40 % 1016,2 hPa 0,0 l/m N-NO 1,00 h 800 W/m 9,7 km/h (2 Bft)
05.06.2010 16:00 26,1 C 37 % 1015,9 hPa 0,0 l/m N-NO 1,00 h 681 W/m 8,2 km/h (2 Bft)
05.06.2010 17:00 26,2 C 36 % 1015,4 hPa 0,0 l/m O-SO 1,00 h 531 W/m 11,2 km/h (2 Bft)
05.06.2010 18:00 25,9 C 36 % 1015,0 hPa 0,0 l/m O-SO 1,00 h 364 W/m 11,8 km/h (2 Bft)
05.06.2010 19:00 25,2 C 38 % 1014,9 hPa 0,0 l/m O 0,17 h 67 W/m 8,3 km/h (2 Bft)
05.06.2010 20:00 22,6 C 52 % 1014,8 hPa 0,0 l/m O-SO 0,00 h 19 W/m 3,2 km/h (1 Bft)
05.06.2010 21:00 18,7 C 64 % 1015,0 hPa 0,0 l/m O-NO 0,00 h 5 W/m 2,0 km/h (1 Bft)
05.06.2010 22:00 17,2 C 69 % 1015,2 hPa 0,0 l/m N 0,00 h 0 W/m 2,7 km/h (1 Bft)
05.06.2010 23:00 15,5 C 78 % 1015,1 hPa 0,0 l/m N 0,00 h 0 W/m 0,7 km/h (0 Bft)
06.06.2010 00:00 15,0 C 79 % 1014,9 hPa 0,0 l/m N 0,00 h 0 W/m 1,9 km/h (1 Bft)
06.06.2010 01:00 14,8 C 79 % 1014,7 hPa 0,0 l/m N-NW 0,00 h 0 W/m 3,7 km/h (1 Bft)
06.06.2010 02:00 14,4 C 82 % 1014,4 hPa 0,0 l/m N-NW 0,00 h 0 W/m 2,8 km/h (1 Bft)
06.06.2010 03:00 13,9 C 83 % 1014,2 hPa 0,0 l/m N 0,00 h 0 W/m 0,0 km/h (0 Bft)
06.06.2010 04:00 13,2 C 87 % 1013,7 hPa 0,0 l/m N 0,00 h 0 W/m 0,0 km/h (0 Bft)
06.06.2010 05:00 12,7 C 88 % 1013,6 hPa 0,0 l/m N 0,00 h 10 W/m 0,0 km/h (0 Bft)
06.06.2010 06:00 12,5 C 90 % 1013,7 hPa 0,0 l/m N 0,08 h 65 W/m 0,0 km/h (0 Bft)
06.06.2010 07:00 14,3 C 89 % 1013,6 hPa 0,0 l/m N 0,92 h 254 W/m 0,0 km/h (0 Bft)
06.06.2010 08:00 17,2 C 81 % 1013,4 hPa 0,0 l/m S-SW 0,83 h 409 W/m 4,0 km/h (1 Bft)
06.06.2010 09:00 20,7 C 71 % 1013,0 hPa 0,0 l/m S 1,00 h 588 W/m 10,5 km/h (2 Bft)
06.06.2010 10:00 23,1 C 63 % 1012,5 hPa 0,0 l/m S 1,00 h 729 W/m 9,4 km/h (2 Bft)
06.06.2010 11:00 24,8 C 63 % 1012,1 hPa 0,0 l/m SW 1,00 h 823 W/m 10,9 km/h (2 Bft)
06.06.2010 12:00 26,2 C 57 % 1011,7 hPa 0,0 l/m SW 1,00 h 918 W/m 13,6 km/h (3 Bft)
06.06.2010 13:00 27,1 C 46 % 1011,0 hPa 0,0 l/m SW 1,00 h 878 W/m 15,4 km/h (3 Bft)
06.06.2010 14:00 27,5 C 43 % 1010,4 hPa 0,0 l/m W-SW 1,00 h 858 W/m 14,6 km/h (3 Bft)
06.06.2010 15:00 28,0 C 40 % 1009,5 hPa 0,0 l/m SW 1,00 h 761 W/m 15,7 km/h (3 Bft)
06.06.2010 16:00 27,8 C 40 % 1009,0 hPa 0,0 l/m W-SW 0,92 h 590 W/m 14,9 km/h (3 Bft)
06.06.2010 17:00 26,9 C 41 % 1008,4 hPa 0,0 l/m W 0,25 h 276 W/m 12,5 km/h (3 Bft)
06.06.2010 18:00 25,4 C 48 % 1008,4 hPa 0,2 l/m W 0,08 h 78 W/m 13,0 km/h (3 Bft)
06.06.2010 19:00 20,7 C 78 % 1009,0 hPa 0,4 l/m W-SW 0,00 h 20 W/m 9,0 km/h (2 Bft)
06.06.2010 20:00 20,0 C 77 % 1009,2 hPa 0,0 l/m W-SW 0,00 h 13 W/m 10,7 km/h (2 Bft)
06.06.2010 21:00 19,1 C 82 % 1010,7 hPa 1,4 l/m W 0,00 h 0 W/m 18,8 km/h (3 Bft)
06.06.2010 22:00 16,3 C 91 % 1012,0 hPa 2,2 l/m W 0,00 h 0 W/m 14,8 km/h (3 Bft)
06.06.2010 23:00 15,9 C 95 % 1012,5 hPa 0,8 l/m SW 0,00 h 0 W/m 11,4 km/h (2 Bft)
Min-Datum _ 31.05.10 05.06.10 31.05.10 - - - - 01.06.10
_ Min-Zeit 05:10 16:40 00:35 - - - - 00:20
Minimum _ 4,9 C 34 % 1007,0 hPa - - - - 0,0 km/h (0 Bft)
Max-Datum _ 06.06.10 04.06.10 05.06.10 31.05.10 - 31.05.10 01.06.10 31.05.10
_ Max-Zeit 15:55 08:40 00:35 01:25 - 09:35 12:50 03:15
Maximum _ 28,3 C 100 % 1019,1 hPa 5,0 l/m - 0,08 h 1111 W/m 41,8 km/h
NW (6 Bft)
Durchschnitt _ 13,8 C 82 % 1014,7 hPa #33,8 l/m W #33:45 h 265 W/m 8,3 km/h (2 Bft)